createdAt,value
2019-03-30T00:00:00.056Z,10.04
2019-03-30T00:00:59.991Z,10.15
2019-03-30T00:01:59.882Z,10.12
2019-03-30T00:02:59.802Z,9.98
2019-03-30T00:03:59.714Z,10.16
2019-03-30T00:04:59.641Z,10.02
2019-03-30T00:05:59.555Z,10.05
2019-03-30T00:06:59.471Z,10.12
2019-03-30T00:07:59.388Z,9.98
2019-03-30T00:08:59.304Z,9.99
2019-03-30T00:09:59.222Z,10.01
2019-03-30T00:10:59.139Z,9.98
2019-03-30T00:11:59.064Z,9.97
2019-03-30T00:12:58.977Z,9.92
2019-03-30T00:13:58.893Z,9.98
2019-03-30T00:14:58.811Z,9.91
2019-03-30T00:15:58.730Z,9.89
2019-03-30T00:16:58.646Z,9.82
2019-03-30T00:17:58.563Z,9.74
2019-03-30T00:18:58.485Z,9.82
2019-03-30T00:19:58.401Z,9.76
2019-03-30T00:20:58.322Z,9.79
2019-03-30T00:21:58.231Z,9.74
2019-03-30T00:22:58.149Z,9.69
2019-03-30T00:23:58.070Z,9.74
2019-03-30T00:24:57.986Z,9.79
2019-03-30T00:25:57.896Z,9.62
2019-03-30T00:26:57.824Z,9.65
2019-03-30T00:27:57.738Z,9.76
2019-03-30T00:28:57.652Z,9.65
2019-03-30T00:29:57.573Z,9.73
2019-03-30T00:30:57.480Z,9.69
2019-03-30T00:31:57.405Z,9.73
2019-03-30T00:32:57.316Z,9.83
2019-03-30T00:33:57.230Z,9.87
2019-03-30T00:34:57.161Z,9.86
2019-03-30T00:35:57.070Z,9.84
2019-03-30T00:36:56.981Z,9.97
2019-03-30T00:37:56.903Z,9.97
2019-03-30T00:38:56.818Z,10.02
2019-03-30T00:39:56.751Z,9.98
2019-03-30T00:40:56.656Z,9.98
2019-03-30T00:41:56.570Z,10.04
2019-03-30T00:42:56.489Z,10.02
2019-03-30T00:43:56.409Z,10.02
2019-03-30T00:44:56.327Z,10.01
2019-03-30T00:45:56.246Z,10.07
2019-03-30T00:46:56.159Z,9.92
2019-03-30T00:47:56.077Z,10.02
2019-03-30T00:48:55.993Z,9.91
2019-03-30T00:49:55.918Z,9.68
2019-03-30T00:50:55.830Z,9.79
2019-03-30T00:51:55.745Z,9.64
2019-03-30T00:52:55.668Z,9.58
2019-03-30T00:53:55.581Z,9.64
2019-03-30T00:54:55.500Z,9.59
2019-03-30T00:55:55.414Z,9.65
2019-03-30T00:56:55.341Z,9.62
2019-03-30T00:57:55.246Z,9.66
2019-03-30T00:58:55.166Z,9.44
2019-03-30T00:59:55.087Z,9.50
2019-03-30T01:00:54.999Z,9.48
2019-03-30T01:01:54.917Z,9.50
2019-03-30T01:02:54.833Z,9.51
2019-03-30T01:03:54.749Z,9.46
2019-03-30T01:04:54.671Z,9.48
2019-03-30T01:05:54.582Z,9.44
2019-03-30T01:06:54.514Z,9.46
2019-03-30T01:07:54.415Z,9.51
2019-03-30T01:08:54.346Z,9.47
2019-03-30T01:09:54.246Z,9.55
2019-03-30T01:10:54.165Z,9.64
2019-03-30T01:11:54.089Z,9.59
2019-03-30T01:12:54.005Z,9.62
2019-03-30T01:13:53.927Z,9.44
2019-03-30T01:14:53.831Z,9.31
2019-03-30T01:15:53.758Z,9.41
2019-03-30T01:16:53.672Z,9.26
2019-03-30T01:17:53.585Z,9.28
2019-03-30T01:18:53.507Z,9.28
2019-03-30T01:20:02.851Z,9.21
2019-03-30T01:20:53.340Z,9.23
2019-03-30T01:21:56.065Z,9.22
2019-03-30T01:22:53.168Z,9.10
2019-03-30T01:23:53.091Z,9.10
2019-03-30T01:24:53.010Z,9.00
2019-03-30T01:25:52.918Z,8.95
2019-03-30T01:26:52.835Z,9.10
2019-03-30T01:27:52.748Z,9.06
2019-03-30T01:28:52.668Z,9.03
2019-03-30T01:29:52.585Z,9.03
2019-03-30T01:30:52.497Z,8.97
2019-03-30T01:31:52.415Z,8.97
2019-03-30T01:32:52.333Z,8.78
2019-03-30T01:33:52.253Z,8.94
2019-03-30T01:34:52.170Z,8.91
2019-03-30T01:35:52.084Z,8.94
2019-03-30T01:36:51.998Z,9.06
2019-03-30T01:37:51.915Z,9.10
2019-03-30T01:38:51.833Z,9.10
2019-03-30T01:39:51.749Z,9.08
2019-03-30T01:40:51.665Z,9.11
2019-03-30T01:41:51.579Z,9.11
2019-03-30T01:42:51.497Z,9.14
2019-03-30T01:43:51.415Z,9.06
2019-03-30T01:44:51.326Z,9.14
2019-03-30T01:45:51.242Z,9.03
2019-03-30T01:46:51.159Z,8.94
2019-03-30T01:47:51.071Z,9.10
2019-03-30T01:48:50.990Z,9.06
2019-03-30T01:49:50.905Z,8.97
2019-03-30T01:50:50.819Z,8.99
2019-03-30T01:51:50.740Z,9.04
2019-03-30T01:52:50.658Z,9.10
2019-03-30T01:53:50.582Z,9.11
2019-03-30T01:54:50.492Z,9.10
2019-03-30T01:55:50.402Z,9.04
2019-03-30T01:56:50.321Z,9.08
2019-03-30T01:57:50.244Z,9.14
2019-03-30T01:58:50.172Z,8.97
2019-03-30T01:59:50.080Z,9.10
2019-03-30T02:00:49.985Z,9.06
2019-03-30T02:01:49.900Z,9.10
2019-03-30T02:02:49.818Z,9.10
2019-03-30T02:03:49.739Z,9.13
2019-03-30T02:04:49.656Z,9.26
2019-03-30T02:05:49.570Z,9.28
2019-03-30T02:06:49.486Z,9.22
2019-03-30T02:07:49.402Z,9.28
2019-03-30T02:08:49.322Z,9.23
2019-03-30T02:09:49.233Z,9.25
2019-03-30T02:10:49.168Z,9.29
2019-03-30T02:11:49.064Z,9.29
2019-03-30T02:12:48.992Z,9.36
2019-03-30T02:13:48.899Z,9.36
2019-03-30T02:14:48.812Z,9.34
2019-03-30T02:15:48.733Z,9.26
2019-03-30T02:16:48.651Z,9.29
2019-03-30T02:19:20.572Z,9.29
2019-03-30T02:20:30.380Z,9.28
2019-03-30T02:22:24.783Z,9.22
2019-03-30T02:23:24.681Z,9.25
2019-03-30T02:25:30.035Z,9.22
2019-03-30T02:26:29.910Z,9.25
2019-03-30T02:28:34.217Z,9.25
2019-03-30T02:29:34.129Z,9.26
2019-03-30T02:31:38.435Z,9.21
2019-03-30T02:32:38.333Z,9.21
2019-03-30T02:34:42.639Z,9.10
2019-03-30T02:35:42.548Z,8.97
2019-03-30T02:37:46.842Z,8.69
2019-03-30T02:38:46.775Z,8.66
2019-03-30T02:40:51.033Z,8.55
2019-03-30T02:41:50.938Z,8.52
2019-03-30T02:43:55.248Z,8.56
2019-03-30T02:44:55.146Z,8.55
2019-03-30T02:46:59.471Z,8.49
2019-03-30T02:47:59.369Z,8.61
2019-03-30T02:50:03.663Z,8.61
2019-03-30T02:51:03.580Z,8.61
2019-03-30T02:53:07.881Z,8.70
2019-03-30T02:54:07.796Z,8.71
2019-03-30T02:56:12.079Z,8.74
2019-03-30T02:57:11.983Z,8.69
2019-03-30T02:59:05.218Z,8.60
2019-03-30T03:00:05.130Z,8.58
2019-03-30T03:02:09.446Z,8.78
2019-03-30T03:03:09.351Z,8.73
2019-03-30T03:05:13.642Z,8.79
2019-03-30T03:06:13.554Z,8.71
2019-03-30T03:08:17.846Z,8.69
2019-03-30T03:09:17.745Z,8.79
2019-03-30T03:10:17.671Z,8.79
2019-03-30T03:11:17.606Z,8.64
2019-03-30T03:12:17.497Z,8.48
2019-03-30T03:13:17.418Z,8.28
2019-03-30T03:14:17.330Z,8.26
2019-03-30T03:15:17.246Z,8.15
2019-03-30T03:16:17.162Z,8.19
2019-03-30T03:17:17.078Z,8.16
2019-03-30T03:18:16.999Z,8.24
2019-03-30T03:19:16.914Z,8.30
2019-03-30T03:20:16.825Z,8.31
2019-03-30T03:21:16.740Z,8.28
2019-03-30T03:22:16.661Z,8.23
2019-03-30T03:23:16.569Z,8.20
2019-03-30T03:24:16.491Z,8.28
2019-03-30T03:25:16.407Z,8.26
2019-03-30T03:26:16.316Z,8.20
2019-03-30T03:27:16.254Z,8.23
2019-03-30T03:28:16.153Z,8.28
2019-03-30T03:29:16.069Z,8.24
2019-03-30T03:30:15.984Z,8.19
2019-03-30T03:31:15.902Z,8.06
2019-03-30T03:32:15.839Z,7.94
2019-03-30T03:33:15.766Z,7.79
2019-03-30T03:34:15.656Z,7.73
2019-03-30T03:35:15.569Z,7.73
2019-03-30T03:36:15.568Z,7.54
2019-03-30T03:37:15.394Z,7.67
2019-03-30T03:38:15.438Z,7.63
2019-03-30T03:39:15.224Z,7.53
2019-03-30T03:40:15.141Z,7.53
2019-03-30T03:41:15.056Z,7.63
2019-03-30T03:42:14.972Z,7.67
2019-03-30T03:43:14.897Z,7.53
2019-03-30T03:44:14.806Z,7.54
2019-03-30T03:45:14.719Z,7.58
2019-03-30T03:46:14.636Z,7.58
2019-03-30T03:47:14.545Z,7.72
2019-03-30T03:48:14.461Z,7.76
2019-03-30T03:49:14.379Z,7.82
2019-03-30T03:50:14.292Z,7.79
2019-03-30T03:51:25.617Z,7.82
2019-03-30T03:52:14.124Z,7.87
2019-03-30T03:53:14.041Z,7.79
2019-03-30T03:54:13.956Z,7.85
2019-03-30T03:55:13.878Z,7.77
2019-03-30T03:56:13.788Z,7.90
2019-03-30T03:57:13.728Z,7.85
2019-03-30T03:58:13.619Z,7.83
2019-03-30T03:59:13.636Z,7.85
2019-03-30T04:00:13.453Z,7.79
2019-03-30T04:01:13.370Z,7.75
2019-03-30T04:02:13.278Z,7.66
2019-03-30T04:03:13.189Z,7.67
2019-03-30T04:04:13.114Z,7.60
2019-03-30T04:05:13.028Z,7.66
2019-03-30T04:06:12.939Z,7.47
2019-03-30T04:07:12.865Z,7.35
2019-03-30T04:08:12.771Z,7.43
2019-03-30T04:09:12.687Z,7.36
2019-03-30T04:10:12.604Z,7.38
2019-03-30T04:11:12.519Z,7.40
2019-03-30T04:12:12.441Z,7.32
2019-03-30T04:13:12.355Z,7.25
2019-03-30T04:14:12.266Z,7.29
2019-03-30T04:15:12.186Z,7.29
2019-03-30T04:16:12.096Z,7.29
2019-03-30T04:17:12.009Z,7.33
2019-03-30T04:18:11.925Z,7.24
2019-03-30T04:19:11.870Z,7.39
2019-03-30T04:20:11.756Z,7.38
2019-03-30T04:21:11.668Z,7.25
2019-03-30T04:22:11.589Z,7.28
2019-03-30T04:23:11.504Z,7.20
2019-03-30T04:24:11.418Z,7.23
2019-03-30T04:25:11.330Z,7.21
2019-03-30T04:26:11.248Z,7.17
2019-03-30T04:27:11.158Z,7.29
2019-03-30T04:28:11.078Z,7.25
2019-03-30T04:29:10.995Z,7.29
2019-03-30T04:30:10.917Z,7.39
2019-03-30T04:31:10.826Z,7.50
2019-03-30T04:32:10.741Z,7.47
2019-03-30T04:33:10.654Z,7.53
2019-03-30T04:34:10.590Z,7.60
2019-03-30T04:35:10.483Z,7.70
2019-03-30T04:36:10.398Z,7.75
2019-03-30T04:37:10.314Z,7.75
2019-03-30T04:38:14.081Z,7.76
2019-03-30T04:39:10.146Z,7.82
2019-03-30T04:40:10.059Z,7.85
2019-03-30T04:41:09.982Z,7.75
2019-03-30T04:42:09.888Z,7.76
2019-03-30T04:43:09.812Z,7.76
2019-03-30T04:44:09.718Z,7.72
2019-03-30T04:45:09.649Z,7.61
2019-03-30T04:46:09.550Z,7.47
2019-03-30T04:47:09.465Z,7.42
2019-03-30T04:48:09.385Z,7.36
2019-03-30T04:49:09.293Z,7.28
2019-03-30T04:50:09.206Z,7.21
2019-03-30T04:51:09.127Z,7.28
2019-03-30T04:52:09.061Z,7.18
2019-03-30T04:53:08.959Z,7.18
2019-03-30T04:54:08.872Z,7.14
2019-03-30T04:55:08.788Z,7.13
2019-03-30T04:56:08.706Z,7.21
2019-03-30T04:57:08.619Z,7.00
2019-03-30T04:58:09.455Z,6.92
2019-03-30T04:59:08.448Z,7.02
2019-03-30T05:00:08.366Z,7.02
2019-03-30T05:01:08.281Z,7.06
2019-03-30T05:02:08.194Z,7.10
2019-03-30T05:03:08.108Z,7.18
2019-03-30T05:04:08.024Z,7.21
2019-03-30T05:05:07.940Z,7.32
2019-03-30T05:06:07.849Z,7.32
2019-03-30T05:07:07.777Z,7.29
2019-03-30T05:08:07.689Z,7.36
2019-03-30T05:09:07.665Z,7.33
2019-03-30T05:10:07.515Z,7.33
2019-03-30T05:11:07.435Z,7.36
2019-03-30T05:12:07.352Z,7.28
2019-03-30T05:13:07.260Z,7.32
2019-03-30T05:14:07.173Z,7.17
2019-03-30T05:15:07.093Z,7.14
2019-03-30T05:16:07.009Z,7.13
2019-03-30T05:17:06.928Z,7.20
2019-03-30T05:18:06.838Z,7.18
2019-03-30T05:19:06.753Z,7.15
2019-03-30T05:20:06.669Z,7.11
2019-03-30T05:21:06.584Z,7.03
2019-03-30T05:22:13.576Z,6.93
2019-03-30T05:23:06.448Z,6.97
2019-03-30T05:24:06.327Z,6.99
2019-03-30T05:25:06.247Z,7.07
2019-03-30T05:26:06.162Z,7.14
2019-03-30T05:27:06.075Z,7.14
2019-03-30T05:28:05.988Z,7.24
2019-03-30T05:29:05.907Z,7.18
2019-03-30T05:30:05.824Z,7.17
2019-03-30T05:31:05.734Z,7.20
2019-03-30T05:32:05.646Z,7.02
2019-03-30T05:33:06.518Z,7.03
2019-03-30T05:34:05.477Z,6.88
2019-03-30T05:35:05.394Z,6.88
2019-03-30T05:36:05.318Z,6.77
2019-03-30T05:37:05.224Z,6.63
2019-03-30T05:38:05.137Z,6.56
2019-03-30T05:39:05.052Z,6.62
2019-03-30T05:40:04.988Z,6.72
2019-03-30T05:41:04.882Z,6.67
2019-03-30T05:42:04.794Z,6.74
2019-03-30T05:43:04.712Z,6.74
2019-03-30T05:44:04.626Z,6.72
2019-03-30T05:45:04.538Z,6.70
2019-03-30T05:46:04.453Z,6.78
2019-03-30T05:47:04.369Z,6.88
2019-03-30T05:48:04.285Z,6.82
2019-03-30T05:49:04.197Z,6.92
2019-03-30T05:50:04.111Z,6.89
2019-03-30T05:51:04.026Z,6.97
2019-03-30T05:52:03.950Z,6.99
2019-03-30T05:53:03.860Z,6.97
2019-03-30T05:54:03.765Z,6.93
2019-03-30T05:55:03.689Z,6.99
2019-03-30T05:56:03.601Z,7.03
2019-03-30T05:57:03.513Z,7.05
2019-03-30T05:58:03.419Z,7.07
2019-03-30T05:59:03.339Z,7.13
2019-03-30T06:00:03.255Z,7.11
2019-03-30T06:01:03.167Z,7.23
2019-03-30T06:02:03.082Z,7.32
2019-03-30T06:03:03.001Z,7.32
2019-03-30T06:04:02.913Z,7.31
2019-03-30T06:05:03.753Z,7.23
2019-03-30T06:06:02.739Z,7.23
2019-03-30T06:07:02.661Z,7.24
2019-03-30T06:08:02.571Z,7.28
2019-03-30T06:09:02.488Z,7.35
2019-03-30T06:10:02.412Z,7.25
2019-03-30T06:11:02.396Z,7.35
2019-03-30T06:12:02.226Z,7.33
2019-03-30T06:13:02.145Z,7.50
2019-03-30T06:14:02.059Z,7.56
2019-03-30T06:15:01.974Z,7.54
2019-03-30T06:16:01.882Z,7.54
2019-03-30T06:17:01.806Z,7.48
2019-03-30T06:18:01.715Z,7.54
2019-03-30T06:19:01.633Z,7.31
2019-03-30T06:20:01.548Z,7.31
2019-03-30T06:21:01.463Z,7.33
2019-03-30T06:22:01.379Z,7.33
2019-03-30T06:23:01.292Z,7.38
2019-03-30T06:24:01.207Z,7.43
2019-03-30T06:25:01.131Z,7.43
2019-03-30T06:26:01.036Z,7.50
2019-03-30T06:27:00.950Z,7.54
2019-03-30T06:28:00.875Z,7.61
2019-03-30T06:29:00.777Z,7.61
2019-03-30T06:30:00.697Z,7.67
2019-03-30T06:31:00.611Z,7.75
2019-03-30T06:32:00.531Z,7.73
2019-03-30T06:33:00.446Z,7.70
2019-03-30T06:34:00.355Z,7.69
2019-03-30T06:35:00.475Z,7.77
2019-03-30T06:36:00.185Z,7.75
2019-03-30T06:37:00.096Z,7.73
2019-03-30T06:38:00.018Z,7.79
2019-03-30T06:38:59.934Z,7.75
2019-03-30T06:39:59.855Z,7.79
2019-03-30T06:40:59.765Z,7.82
2019-03-30T06:41:59.679Z,7.95
2019-03-30T06:42:59.613Z,8.00
2019-03-30T06:43:59.512Z,8.12
2019-03-30T06:44:59.433Z,8.16
2019-03-30T06:45:59.342Z,8.15
2019-03-30T06:46:59.259Z,8.23
2019-03-30T06:47:59.174Z,8.26
2019-03-30T06:48:59.110Z,8.27
2019-03-30T06:49:59.005Z,8.28
2019-03-30T06:50:58.917Z,8.36
2019-03-30T06:51:58.835Z,8.30
2019-03-30T06:52:59.045Z,8.33
2019-03-30T06:53:58.664Z,8.34
2019-03-30T06:54:58.585Z,8.36
2019-03-30T06:55:58.501Z,8.34
2019-03-30T06:56:58.417Z,8.45
2019-03-30T06:57:58.333Z,8.44
2019-03-30T06:58:58.248Z,8.34
2019-03-30T06:59:58.167Z,8.28
2019-03-30T07:00:58.094Z,8.30
2019-03-30T07:01:57.993Z,8.33
2019-03-30T07:02:57.921Z,8.41
2019-03-30T07:03:57.829Z,8.37
2019-03-30T07:04:57.745Z,8.37
2019-03-30T07:05:57.660Z,8.31
2019-03-30T07:06:57.575Z,8.36
2019-03-30T07:07:57.493Z,8.37
2019-03-30T07:08:57.410Z,8.34
2019-03-30T07:09:57.338Z,8.51
2019-03-30T07:10:57.247Z,8.42
2019-03-30T07:11:57.155Z,8.52
2019-03-30T07:12:57.081Z,8.58
2019-03-30T07:13:56.993Z,8.58
2019-03-30T07:14:56.909Z,8.60
2019-03-30T07:15:56.823Z,8.61
2019-03-30T07:16:56.741Z,8.63
2019-03-30T07:17:56.657Z,8.66
2019-03-30T07:18:56.567Z,8.66
2019-03-30T07:19:56.486Z,8.69
2019-03-30T07:20:56.406Z,8.85
2019-03-30T07:21:56.320Z,8.85
2019-03-30T07:22:56.240Z,8.74
2019-03-30T07:23:56.155Z,8.85
2019-03-30T07:24:56.073Z,8.78
2019-03-30T07:25:55.989Z,8.88
2019-03-30T07:26:55.906Z,8.88
2019-03-30T07:27:55.828Z,8.92
2019-03-30T07:28:55.748Z,8.94
2019-03-30T07:29:55.657Z,8.92
2019-03-30T07:30:55.568Z,8.91
2019-03-30T07:31:55.488Z,8.97
2019-03-30T07:32:55.405Z,8.95
2019-03-30T07:33:55.320Z,9.04
2019-03-30T07:34:55.243Z,9.06
2019-03-30T07:35:55.159Z,9.04
2019-03-30T07:36:55.083Z,9.04
2019-03-30T07:37:55.001Z,9.21
2019-03-30T07:38:54.908Z,9.13
2019-03-30T07:39:54.820Z,9.14
2019-03-30T07:40:54.741Z,9.19
2019-03-30T07:41:54.661Z,9.18
2019-03-30T07:42:54.576Z,9.26
2019-03-30T07:43:54.492Z,9.29
2019-03-30T07:44:54.407Z,9.36
2019-03-30T07:45:54.327Z,9.40
2019-03-30T07:46:54.244Z,9.40
2019-03-30T07:47:54.164Z,9.43
2019-03-30T07:48:54.079Z,9.46
2019-03-30T07:49:53.988Z,9.48
2019-03-30T07:50:53.911Z,9.46
2019-03-30T07:51:53.904Z,9.44
2019-03-30T07:52:53.747Z,9.48
2019-03-30T07:53:53.669Z,9.54
2019-03-30T07:54:53.588Z,9.65
2019-03-30T07:56:07.416Z,9.64
2019-03-30T07:57:04.235Z,9.65
2019-03-30T07:57:53.387Z,9.66
2019-03-30T07:58:53.249Z,9.66
2019-03-30T07:59:53.172Z,9.66
2019-03-30T08:00:53.085Z,9.64
2019-03-30T08:01:53.005Z,9.69
2019-03-30T08:02:52.925Z,9.65
2019-03-30T08:03:52.840Z,9.73
2019-03-30T08:04:52.754Z,9.74
2019-03-30T08:05:54.403Z,9.74
2019-03-30T08:06:52.591Z,9.77
2019-03-30T08:07:52.507Z,9.83
2019-03-30T08:08:52.424Z,9.83
2019-03-30T08:09:52.344Z,9.83
2019-03-30T08:10:52.264Z,9.87
2019-03-30T08:11:52.177Z,9.89
2019-03-30T08:12:52.095Z,9.89
2019-03-30T08:13:52.014Z,9.89
2019-03-30T08:14:51.930Z,10.01
2019-03-30T08:15:51.846Z,10.02
2019-03-30T08:16:51.763Z,10.07
2019-03-30T08:17:51.714Z,10.01
2019-03-30T08:19:00.009Z,10.02
2019-03-30T08:20:55.909Z,10.10
2019-03-30T08:21:55.806Z,10.02
2019-03-30T08:24:00.163Z,10.04
2019-03-30T08:25:00.026Z,10.10
2019-03-30T08:25:59.928Z,10.17
2019-03-30T08:26:59.852Z,10.15
2019-03-30T08:27:59.760Z,10.19
2019-03-30T08:28:59.727Z,10.22
2019-03-30T08:29:59.600Z,10.20
2019-03-30T08:30:59.514Z,10.22
2019-03-30T08:31:59.445Z,10.25
2019-03-30T08:32:59.352Z,10.31
2019-03-30T08:33:59.269Z,10.35
2019-03-30T08:34:59.189Z,10.33
2019-03-30T08:35:59.104Z,10.44
2019-03-30T08:36:59.455Z,10.34
2019-03-30T08:37:58.942Z,10.46
2019-03-30T08:38:58.881Z,10.44
2019-03-30T08:39:58.782Z,10.46
2019-03-30T08:40:58.696Z,10.48
2019-03-30T08:41:58.665Z,10.42
2019-03-30T08:42:58.539Z,10.42
2019-03-30T08:43:58.468Z,10.57
2019-03-30T08:44:58.372Z,10.51
2019-03-30T08:45:58.292Z,10.59
2019-03-30T08:46:58.208Z,10.59
2019-03-30T08:47:58.129Z,10.69
2019-03-30T08:48:58.042Z,10.67
2019-03-30T08:49:57.962Z,10.69
2019-03-30T08:50:57.877Z,10.75
2019-03-30T08:51:57.799Z,10.74
2019-03-30T08:52:57.723Z,10.78
2019-03-30T08:53:57.638Z,10.71
2019-03-30T08:54:57.553Z,10.82
2019-03-30T08:55:57.472Z,10.81
2019-03-30T08:56:57.391Z,10.84
2019-03-30T08:57:57.307Z,10.84
2019-03-30T08:58:57.231Z,10.82
2019-03-30T08:59:57.145Z,10.87
2019-03-30T09:00:57.079Z,10.97
2019-03-30T09:01:56.988Z,10.87
2019-03-30T09:02:56.904Z,10.96
2019-03-30T09:03:56.825Z,11.07
2019-03-30T09:04:56.740Z,11.02
2019-03-30T09:05:56.658Z,10.96
2019-03-30T09:06:56.580Z,11.10
2019-03-30T09:07:56.495Z,11.08
2019-03-30T09:08:56.417Z,11.15
2019-03-30T09:09:56.408Z,11.17
2019-03-30T09:10:56.252Z,11.17
2019-03-30T09:11:56.175Z,11.25
2019-03-30T09:12:56.084Z,11.19
2019-03-30T09:13:56.011Z,11.18
2019-03-30T09:14:55.932Z,11.23
2019-03-30T09:15:55.852Z,11.27
2019-03-30T09:16:55.769Z,11.27
2019-03-30T09:17:55.685Z,11.25
2019-03-30T09:18:55.604Z,11.23
2019-03-30T09:19:55.524Z,11.26
2019-03-30T09:20:55.444Z,11.25
2019-03-30T09:21:55.364Z,11.25
2019-03-30T09:22:55.282Z,11.30
2019-03-30T09:24:08.930Z,11.30
2019-03-30T09:24:55.114Z,11.29
2019-03-30T09:25:55.072Z,11.35
2019-03-30T09:26:54.958Z,11.41
2019-03-30T09:27:54.878Z,11.47
2019-03-30T09:28:54.879Z,11.43
2019-03-30T09:29:54.717Z,11.51
2019-03-30T09:30:54.636Z,11.55
2019-03-30T09:31:54.627Z,11.55
2019-03-30T09:32:54.476Z,11.59
2019-03-30T09:33:54.391Z,11.65
2019-03-30T09:34:54.310Z,11.62
2019-03-30T09:35:54.227Z,11.63
2019-03-30T09:36:54.274Z,11.59
2019-03-30T09:37:54.074Z,11.68
2019-03-30T09:38:53.986Z,11.59
2019-03-30T09:39:53.910Z,11.66
2019-03-30T09:40:53.820Z,11.66
2019-03-30T09:41:53.743Z,11.72
2019-03-30T09:42:53.665Z,11.69
2019-03-30T09:43:53.586Z,11.73
2019-03-30T09:44:53.503Z,11.77
2019-03-30T09:45:53.426Z,11.73
2019-03-30T09:46:53.349Z,11.75
2019-03-30T09:47:53.466Z,11.72
2019-03-30T09:48:53.177Z,11.75
2019-03-30T09:49:53.103Z,11.83
2019-03-30T09:50:53.021Z,11.83
2019-03-30T09:51:52.940Z,11.80
2019-03-30T09:52:52.857Z,11.90
2019-03-30T09:53:52.802Z,11.99
2019-03-30T09:54:52.701Z,11.90
2019-03-30T09:55:52.619Z,12.06
2019-03-30T09:56:52.534Z,12.07
2019-03-30T09:57:52.457Z,12.00
2019-03-30T09:58:52.379Z,12.06
2019-03-30T09:59:52.296Z,12.03
2019-03-30T10:00:52.219Z,12.09
2019-03-30T10:01:52.139Z,12.10
2019-03-30T10:02:52.125Z,12.09
2019-03-30T10:03:51.975Z,12.13
2019-03-30T10:04:51.897Z,12.22
2019-03-30T10:05:51.816Z,12.20
2019-03-30T10:06:51.736Z,12.20
2019-03-30T10:07:51.659Z,12.27
2019-03-30T10:08:51.578Z,12.29
2019-03-30T10:09:51.496Z,12.35
2019-03-30T10:10:51.416Z,12.40
2019-03-30T10:11:51.339Z,12.31
2019-03-30T10:12:51.254Z,12.31
2019-03-30T10:13:51.178Z,12.40
2019-03-30T10:14:51.093Z,12.39
2019-03-30T10:15:51.014Z,12.37
2019-03-30T10:16:50.947Z,12.37
2019-03-30T10:17:50.854Z,12.42
2019-03-30T10:18:50.775Z,12.39
2019-03-30T10:20:03.541Z,12.42
2019-03-30T10:20:50.611Z,12.45
2019-03-30T10:21:50.538Z,12.45
2019-03-30T10:22:50.453Z,12.53
2019-03-30T10:23:50.377Z,12.50
2019-03-30T10:24:50.291Z,12.55
2019-03-30T10:25:50.219Z,12.54
2019-03-30T10:26:50.139Z,12.54
2019-03-30T10:27:50.069Z,12.47
2019-03-30T10:28:49.976Z,12.64
2019-03-30T10:29:49.896Z,12.64
2019-03-30T10:30:49.822Z,12.62
2019-03-30T10:31:49.744Z,12.67
2019-03-30T10:32:49.762Z,12.67
2019-03-30T10:33:49.582Z,12.64
2019-03-30T10:34:49.496Z,12.78
2019-03-30T10:35:49.424Z,12.78
2019-03-30T10:36:49.340Z,12.86
2019-03-30T10:37:49.265Z,12.95
2019-03-30T10:38:49.188Z,12.91
2019-03-30T10:39:49.111Z,12.95
2019-03-30T10:40:49.033Z,12.97
2019-03-30T10:41:48.949Z,12.91
2019-03-30T10:42:48.869Z,12.91
2019-03-30T10:43:48.790Z,12.94
2019-03-30T10:44:48.709Z,12.95
2019-03-30T10:45:48.631Z,12.90
2019-03-30T10:46:48.574Z,12.90
2019-03-30T10:47:48.469Z,12.93
2019-03-30T10:48:48.405Z,13.03
2019-03-30T10:49:48.317Z,12.93
2019-03-30T10:50:48.235Z,13.08
2019-03-30T10:51:48.157Z,13.04
2019-03-30T10:52:48.078Z,13.08
2019-03-30T10:53:48.010Z,13.16
2019-03-30T10:54:53.083Z,13.15
2019-03-30T10:55:47.849Z,13.23
2019-03-30T10:56:47.765Z,13.28
2019-03-30T10:57:47.701Z,13.25
2019-03-30T10:58:47.606Z,13.31
2019-03-30T10:59:47.526Z,13.37
2019-03-30T11:00:47.449Z,13.39
2019-03-30T11:01:47.374Z,13.46
2019-03-30T11:02:47.301Z,13.49
2019-03-30T11:03:47.218Z,13.49
2019-03-30T11:04:47.142Z,13.56
2019-03-30T11:05:47.064Z,13.63
2019-03-30T11:06:46.984Z,13.65
2019-03-30T11:07:46.908Z,13.68
2019-03-30T11:08:46.824Z,13.68
2019-03-30T11:09:49.409Z,13.79
2019-03-30T11:10:46.677Z,13.90
2019-03-30T11:11:46.593Z,13.77
2019-03-30T11:12:46.521Z,13.90
2019-03-30T11:13:46.450Z,13.96
2019-03-30T11:14:46.370Z,13.93
2019-03-30T11:15:46.295Z,13.99
2019-03-30T11:16:46.223Z,14.07
2019-03-30T11:17:46.147Z,14.07
2019-03-30T11:18:46.100Z,14.28
2019-03-30T11:19:46.004Z,14.32
2019-03-30T11:20:45.933Z,14.41
2019-03-30T11:21:45.869Z,14.53
2019-03-30T11:22:45.801Z,14.55
2019-03-30T11:23:45.727Z,14.65
2019-03-30T11:24:45.664Z,14.79
2019-03-30T11:25:45.599Z,14.81
2019-03-30T11:26:45.532Z,14.85
2019-03-30T11:27:45.468Z,15.07
2019-03-30T11:28:45.404Z,15.19
2019-03-30T11:29:45.335Z,15.33
2019-03-30T11:30:45.276Z,15.40
2019-03-30T11:31:45.207Z,15.51
2019-03-30T11:32:45.140Z,15.65
2019-03-30T11:33:45.084Z,15.79
2019-03-30T11:34:45.018Z,15.98
2019-03-30T11:35:44.950Z,16.13
2019-03-30T11:36:44.885Z,16.21
2019-03-30T11:37:44.827Z,16.42
2019-03-30T11:38:44.765Z,16.54
2019-03-30T11:39:44.710Z,16.75
2019-03-30T11:40:44.644Z,16.93
2019-03-30T11:41:44.575Z,17.19
2019-03-30T11:42:44.516Z,17.34
2019-03-30T11:43:44.455Z,17.51
2019-03-30T11:44:44.394Z,17.64
2019-03-30T11:45:44.334Z,17.79
2019-03-30T11:46:44.272Z,17.97
2019-03-30T11:47:44.212Z,18.00
2019-03-30T11:48:44.157Z,18.28
2019-03-30T11:49:44.091Z,18.34
2019-03-30T11:50:44.034Z,18.52
2019-03-30T11:51:43.978Z,18.62
2019-03-30T11:52:43.915Z,18.80
2019-03-30T11:53:43.850Z,18.93
2019-03-30T11:54:43.817Z,18.92
2019-03-30T11:55:43.735Z,19.08
2019-03-30T11:56:43.693Z,19.26
2019-03-30T11:57:43.619Z,19.36
2019-03-30T11:58:43.555Z,19.58
2019-03-30T11:59:43.500Z,19.58
2019-03-30T12:00:43.440Z,19.73
2019-03-30T12:01:43.380Z,19.88
2019-03-30T12:02:43.324Z,19.96
2019-03-30T12:03:43.268Z,20.11
2019-03-30T12:04:43.206Z,20.26
2019-03-30T12:05:43.146Z,20.24
2019-03-30T12:06:43.085Z,20.36
2019-03-30T12:07:43.037Z,20.44
2019-03-30T12:08:42.976Z,20.58
2019-03-30T12:09:42.917Z,20.78
2019-03-30T12:10:42.864Z,20.72
2019-03-30T12:11:42.799Z,20.67
2019-03-30T12:12:42.748Z,20.63
2019-03-30T12:13:42.684Z,20.74
2019-03-30T12:14:42.628Z,20.80
2019-03-30T12:15:42.577Z,20.95
2019-03-30T12:16:42.517Z,20.95
2019-03-30T12:17:42.464Z,20.96
2019-03-30T12:18:42.403Z,21.15
2019-03-30T12:19:42.338Z,21.15
2019-03-30T12:20:42.290Z,21.22
2019-03-30T12:21:42.235Z,21.37
2019-03-30T12:22:42.178Z,21.51
2019-03-30T12:23:42.839Z,21.61
2019-03-30T12:24:42.059Z,21.73
2019-03-30T12:25:42.004Z,21.73
2019-03-30T12:26:41.954Z,21.75
2019-03-30T12:27:41.892Z,21.75
2019-03-30T12:28:41.836Z,21.83
2019-03-30T12:29:44.369Z,21.91
2019-03-30T12:30:41.720Z,21.93
2019-03-30T12:31:41.667Z,22.06
2019-03-30T12:32:41.615Z,22.25
2019-03-30T12:33:41.555Z,22.26
2019-03-30T12:34:41.498Z,22.25
2019-03-30T12:35:41.441Z,22.20
2019-03-30T12:36:41.387Z,22.23
2019-03-30T12:37:41.327Z,22.14
2019-03-30T12:38:41.281Z,22.23
2019-03-30T12:39:41.222Z,22.22
2019-03-30T12:40:41.164Z,22.07
2019-03-30T12:41:41.109Z,22.14
2019-03-30T12:42:41.053Z,22.29
2019-03-30T12:43:40.998Z,22.33
2019-03-30T12:44:40.946Z,22.51
2019-03-30T12:45:40.886Z,22.55
2019-03-30T12:46:40.829Z,22.68
2019-03-30T12:47:40.777Z,22.75
2019-03-30T12:48:40.714Z,22.93
2019-03-30T12:49:40.680Z,23.03
2019-03-30T12:50:40.612Z,23.08
2019-03-30T12:51:40.554Z,23.03
2019-03-30T12:52:40.584Z,23.06
2019-03-30T12:53:50.236Z,23.10
2019-03-30T12:54:40.386Z,23.15
2019-03-30T12:55:49.126Z,23.20
2019-03-30T12:56:40.275Z,23.17
2019-03-30T12:57:40.221Z,23.36
2019-03-30T12:58:40.170Z,23.46
2019-03-30T12:59:40.108Z,23.51
2019-03-30T13:00:40.061Z,23.61
2019-03-30T13:01:40.034Z,23.73
2019-03-30T13:02:39.969Z,23.66
2019-03-30T13:03:39.901Z,23.51
2019-03-30T13:04:39.864Z,23.54
2019-03-30T13:05:39.814Z,23.43
2019-03-30T13:06:39.728Z,23.43
2019-03-30T13:07:39.702Z,23.31
2019-03-30T13:08:39.622Z,23.21
2019-03-30T13:09:39.568Z,23.24
2019-03-30T13:10:39.510Z,23.23
2019-03-30T13:11:39.454Z,23.39
2019-03-30T13:12:39.402Z,23.39
2019-03-30T13:13:39.348Z,23.51
2019-03-30T13:14:39.293Z,23.54
2019-03-30T13:15:39.238Z,23.83
2019-03-30T13:16:39.186Z,23.86
2019-03-30T13:17:39.128Z,24.06
2019-03-30T13:18:39.073Z,24.26
2019-03-30T13:19:39.019Z,24.28
2019-03-30T13:20:38.960Z,24.39
2019-03-30T13:21:52.111Z,24.48
2019-03-30T13:22:38.854Z,24.57
2019-03-30T13:23:38.794Z,24.53
2019-03-30T13:24:38.738Z,24.51
2019-03-30T13:25:38.689Z,24.57
2019-03-30T13:26:38.631Z,24.61